Time;durP1;ratioP1;P1;durP2;ratioP2;P2;SDS_P1;SDS_P2;PMS_P1;PMS_P2;Temp;Humidity;BMP_temperature;BMP_pressure;BME280_temperature;BME280_humidity;BME280_pressure;Samples;Min_cycle;Max_cycle;Signal;HPM_P1;HPM_P2
2021/06/20 00:01:26;;;;;;;17.83;9.20;;;;;;;;;;5071543;28;20436;-68
2021/06/20 00:03:51;;;;;;;16.67;9.43;;;;;;;;;;5070269;28;20129;-68
2021/06/20 00:06:28;;;;;;;19.87;9.47;;;;;;;;;;5071183;28;20025;-68
2021/06/20 00:08:54;;;;;;;18.83;9.23;;;;;;;;;;5070856;28;20033;-68
2021/06/20 00:11:20;;;;;;;16.37;9.30;;;;;;;;;;5071199;28;20372;-68
2021/06/20 00:13:45;;;;;;;17.70;9.47;;;;;;;;;;5064920;28;20033;-68
2021/06/20 00:16:10;;;;;;;17.77;9.37;;;;;;;;;;5063409;28;20059;-68
2021/06/20 00:18:36;;;;;;;19.87;9.57;;;;;;;;;;5070700;28;20385;-68
2021/06/20 00:21:01;;;;;;;20.17;9.93;;;;;;;;;;5071042;28;20074;-68
2021/06/20 00:23:27;;;;;;;19.13;9.23;;;;;;;;;;5070600;28;20358;-68
2021/06/20 00:25:52;;;;;;;24.37;10.10;;;;;;;;;;5069411;28;20107;-68
2021/06/20 00:28:17;;;;;;;16.80;9.07;;;;;;;;;;5072609;28;20081;-69
2021/06/20 00:30:46;;;;;;;18.87;9.93;;;;;;;;;;5074661;28;20020;-68
2021/06/20 00:33:11;;;;;;;19.33;9.53;;;;;;;;;;5072983;28;20025;-68
2021/06/20 00:35:37;;;;;;;19.10;10.00;;;;;;;;;;5068153;28;20439;-68
2021/06/20 00:38:02;;;;;;;19.00;9.83;;;;;;;;;;5071130;28;20031;-68
2021/06/20 00:40:28;;;;;;;16.47;9.10;;;;;;;;;;5066900;28;20020;-69
2021/06/20 00:42:53;;;;;;;17.43;9.40;;;;;;;;;;5072934;28;20029;-69
2021/06/20 00:45:19;;;;;;;18.30;8.83;;;;;;;;;;5070321;28;20035;-68
2021/06/20 00:47:44;;;;;;;23.03;9.70;;;;;;;;;;5068814;28;20024;-68
2021/06/20 00:50:12;;;;;;;18.23;9.53;;;;;;;;;;5066318;28;20024;-69
2021/06/20 00:52:37;;;;;;;20.47;9.63;;;;;;;;;;5073586;28;20036;-69
2021/06/20 00:55:03;;;;;;;20.70;9.90;;;;;;;;;;5072723;28;20420;-68
2021/06/20 00:57:29;;;;;;;17.43;9.63;;;;;;;;;;5073474;28;20499;-68
2021/06/20 00:59:54;;;;;;;19.63;9.50;;;;;;;;;;5062361;28;20036;-68
2021/06/20 01:02:20;;;;;;;21.30;9.20;;;;;;;;;;5070526;28;20114;-68
2021/06/20 01:04:46;;;;;;;18.67;9.30;;;;;;;;;;5072508;28;20451;-68
2021/06/20 01:07:15;;;;;;;18.13;9.57;;;;;;;;;;5074316;28;20487;-68
2021/06/20 01:09:41;;;;;;;25.53;9.43;;;;;;;;;;5073331;28;20016;-68
2021/06/20 01:12:06;;;;;;;17.97;9.07;;;;;;;;;;5073765;28;20094;-68
2021/06/20 01:14:33;;;;;;;20.67;9.90;;;;;;;;;;5072692;28;20511;-68
2021/06/20 01:16:58;;;;;;;21.67;9.97;;;;;;;;;;5074039;28;20032;-68
2021/06/20 01:19:24;;;;;;;17.33;8.93;;;;;;;;;;5073410;28;20090;-68
2021/06/20 01:21:49;;;;;;;17.10;9.83;;;;;;;;;;5073970;28;20055;-68
2021/06/20 01:24:14;;;;;;;16.27;9.50;;;;;;;;;;5073611;28;20423;-68
2021/06/20 01:26:40;;;;;;;20.33;10.77;;;;;;;;;;5068543;28;20028;-68
2021/06/20 01:29:08;;;;;;;20.17;10.83;;;;;;;;;;5073621;28;20021;-68
2021/06/20 01:31:35;;;;;;;22.13;11.07;;;;;;;;;;5073933;28;20017;-68
2021/06/20 01:34:00;;;;;;;27.80;12.00;;;;;;;;;;5073290;28;20078;-67
2021/06/20 01:36:25;;;;;;;23.37;10.40;;;;;;;;;;5073531;28;20099;-68
2021/06/20 01:38:51;;;;;;;24.33;11.83;;;;;;;;;;5073346;28;20076;-68
2021/06/20 01:41:16;;;;;;;23.30;11.43;;;;;;;;;;5073627;28;20035;-68
2021/06/20 01:43:42;;;;;;;24.27;11.27;;;;;;;;;;5072826;28;20369;-68
2021/06/20 01:46:07;;;;;;;22.53;11.00;;;;;;;;;;5073311;28;20322;-68
2021/06/20 01:48:33;;;;;;;26.93;11.77;;;;;;;;;;5072850;28;20025;-68
2021/06/20 01:50:58;;;;;;;28.10;12.30;;;;;;;;;;5073901;28;20025;-68
2021/06/20 01:53:23;;;;;;;26.00;12.73;;;;;;;;;;5072608;28;20033;-68
2021/06/20 01:55:49;;;;;;;30.47;12.77;;;;;;;;;;5073124;28;20020;-68
2021/06/20 01:58:15;;;;;;;25.07;11.87;;;;;;;;;;5072787;28;20060;-67
2021/06/20 02:00:42;;;;;;;30.30;11.73;;;;;;;;;;5073087;28;20020;-67
2021/06/20 02:03:09;;;;;;;29.67;13.07;;;;;;;;;;5072301;28;20076;-67
2021/06/20 02:05:34;;;;;;;28.30;12.77;;;;;;;;;;5072160;28;20020;-67
2021/06/20 02:08:00;;;;;;;27.87;12.47;;;;;;;;;;5072658;28;20090;-67
2021/06/20 02:10:25;;;;;;;25.73;11.63;;;;;;;;;;5070153;28;20020;-67
2021/06/20 02:12:52;;;;;;;27.93;12.90;;;;;;;;;;5063046;28;20027;-67
2021/06/20 02:15:17;;;;;;;31.30;12.83;;;;;;;;;;5071219;28;20036;-67
2021/06/20 02:17:42;;;;;;;20.67;9.40;;;;;;;;;;5072731;28;20020;-67
2021/06/20 02:20:12;;;;;;;24.50;11.47;;;;;;;;;;5071855;28;20035;-66
2021/06/20 02:22:40;;;;;;;22.43;11.60;;;;;;;;;;5071858;28;20032;-67
2021/06/20 02:25:09;;;;;;;25.40;12.30;;;;;;;;;;5072332;28;20492;-67
2021/06/20 02:27:35;;;;;;;32.97;14.00;;;;;;;;;;5072588;28;20095;-67
2021/06/20 02:30:00;;;;;;;31.20;13.10;;;;;;;;;;5072036;28;20081;-66
2021/06/20 02:32:25;;;;;;;33.50;13.83;;;;;;;;;;5072495;28;20377;-66
2021/06/20 02:34:51;;;;;;;30.67;13.33;;;;;;;;;;5059415;28;20032;-66
2021/06/20 02:37:17;;;;;;;27.13;12.30;;;;;;;;;;5061922;28;20024;-67
2021/06/20 02:39:42;;;;;;;30.93;12.63;;;;;;;;;;5060086;28;20020;-66
2021/06/20 02:42:08;;;;;;;30.67;12.37;;;;;;;;;;5071265;28;20056;-66
2021/06/20 02:44:34;;;;;;;27.73;12.53;;;;;;;;;;5072732;28;20017;-66
2021/06/20 02:47:01;;;;;;;27.03;12.07;;;;;;;;;;5060868;28;20027;-66
2021/06/20 02:49:27;;;;;;;30.90;12.80;;;;;;;;;;5063285;28;20017;-66
2021/06/20 02:51:52;;;;;;;30.93;12.90;;;;;;;;;;5065510;28;20567;-67
2021/06/20 02:54:17;;;;;;;28.87;12.37;;;;;;;;;;5065717;28;20240;-67
2021/06/20 02:56:43;;;;;;;32.17;12.47;;;;;;;;;;5068807;28;20655;-67
2021/06/20 02:59:08;;;;;;;26.57;10.87;;;;;;;;;;5070243;28;20044;-67
2021/06/20 03:01:33;;;;;;;25.57;11.23;;;;;;;;;;5072103;28;20017;-68
2021/06/20 03:03:59;;;;;;;22.23;10.10;;;;;;;;;;5070701;28;20052;-68
2021/06/20 03:06:24;;;;;;;18.67;9.23;;;;;;;;;;5070390;28;20013;-68
2021/06/20 03:08:49;;;;;;;18.60;8.97;;;;;;;;;;5069611;28;20161;-68
2021/06/20 03:11:15;;;;;;;14.87;8.07;;;;;;;;;;5071986;28;20016;-68
2021/06/20 03:13:40;;;;;;;14.17;7.17;;;;;;;;;;5069121;28;20054;-68
2021/06/20 03:16:05;;;;;;;15.70;7.23;;;;;;;;;;5072003;28;20346;-67
2021/06/20 03:18:31;;;;;;;12.27;6.00;;;;;;;;;;5057342;28;20112;-68
2021/06/20 03:20:57;;;;;;;16.37;7.20;;;;;;;;;;5060842;28;20020;-68
2021/06/20 03:23:22;;;;;;;15.53;5.47;;;;;;;;;;5071367;28;20071;-68
2021/06/20 03:25:47;;;;;;;10.97;5.20;;;;;;;;;;5072246;28;20020;-68
2021/06/20 03:28:13;;;;;;;11.70;3.93;;;;;;;;;;5071939;28;20074;-68
2021/06/20 03:30:38;;;;;;;10.57;4.40;;;;;;;;;;5063768;28;20021;-69
2021/06/20 03:33:03;;;;;;;10.47;4.20;;;;;;;;;;5071257;28;20059;-69
2021/06/20 03:35:29;;;;;;;11.93;4.80;;;;;;;;;;5072186;28;20031;-68
2021/06/20 03:37:54;;;;;;;10.77;4.33;;;;;;;;;;5071097;28;20425;-69
2021/06/20 03:40:20;;;;;;;12.17;4.33;;;;;;;;;;5071201;28;20047;-67
2021/06/20 03:42:45;;;;;;;15.60;4.50;;;;;;;;;;5070722;28;20026;-68
2021/06/20 03:45:10;;;;;;;10.67;3.63;;;;;;;;;;5071519;28;20050;-68
2021/06/20 03:47:37;;;;;;;12.57;4.27;;;;;;;;;;5070927;28;20021;-68
2021/06/20 03:50:03;;;;;;;10.97;3.90;;;;;;;;;;5065192;28;20059;-68
2021/06/20 03:52:28;;;;;;;10.73;4.07;;;;;;;;;;5066724;28;20024;-69
2021/06/20 03:54:54;;;;;;;10.73;3.30;;;;;;;;;;5071740;28;20100;-68
2021/06/20 03:57:19;;;;;;;10.97;4.03;;;;;;;;;;5070081;28;20035;-68
2021/06/20 03:59:45;;;;;;;7.93;3.60;;;;;;;;;;5068149;28;20048;-68
2021/06/20 04:02:10;;;;;;;10.87;3.33;;;;;;;;;;5072597;28;20024;-68
2021/06/20 04:04:37;;;;;;;7.73;2.50;;;;;;;;;;5074474;28;20039;-69
2021/06/20 04:07:03;;;;;;;9.67;4.03;;;;;;;;;;5074308;28;20384;-68
2021/06/20 04:09:28;;;;;;;10.50;3.43;;;;;;;;;;5074902;28;20027;-68
2021/06/20 04:11:53;;;;;;;10.87;3.60;;;;;;;;;;5074652;28;20602;-68
2021/06/20 04:14:19;;;;;;;10.57;3.20;;;;;;;;;;5071267;28;20496;-68
2021/06/20 04:16:44;;;;;;;6.50;3.23;;;;;;;;;;5068777;28;20465;-68
2021/06/20 04:19:09;;;;;;;8.60;3.23;;;;;;;;;;5072439;28;20024;-68
2021/06/20 04:21:35;;;;;;;8.03;2.83;;;;;;;;;;5068907;28;20414;-68
2021/06/20 04:24:00;;;;;;;10.30;3.20;;;;;;;;;;5073949;28;20032;-68
2021/06/20 04:26:25;;;;;;;12.10;3.03;;;;;;;;;;5072202;28;20050;-68
2021/06/20 04:28:51;;;;;;;8.37;2.60;;;;;;;;;;5073225;28;20029;-68
2021/06/20 04:31:19;;;;;;;8.70;2.87;;;;;;;;;;5074778;28;20024;-68
2021/06/20 04:33:45;;;;;;;9.00;2.80;;;;;;;;;;5074152;28;20052;-68
2021/06/20 04:36:10;;;;;;;11.97;3.03;;;;;;;;;;5074768;28;20035;-68
2021/06/20 04:38:36;;;;;;;9.83;3.33;;;;;;;;;;5074316;28;20062;-68
2021/06/20 04:41:06;;;;;;;10.83;3.30;;;;;;;;;;5074684;28;20021;-68
2021/06/20 04:43:57;;;;;;;8.93;2.43;;;;;;;;;;5074342;28;20086;-68
2021/06/20 04:46:26;;;;;;;6.70;2.80;;;;;;;;;;5064873;28;20025;-68
2021/06/20 04:48:53;;;;;;;6.80;2.87;;;;;;;;;;5072992;28;20480;-68
2021/06/20 04:51:18;;;;;;;7.03;2.27;;;;;;;;;;5074529;28;20016;-68
2021/06/20 04:53:44;;;;;;;9.77;2.47;;;;;;;;;;5072855;28;20091;-68
2021/06/20 04:56:09;;;;;;;7.17;2.33;;;;;;;;;;5072751;28;20020;-68
2021/06/20 04:58:34;;;;;;;9.30;2.50;;;;;;;;;;5073468;28;20122;-68
2021/06/20 05:01:00;;;;;;;8.20;2.93;;;;;;;;;;5074291;28;20103;-68
2021/06/20 05:03:25;;;;;;;6.83;2.20;;;;;;;;;;5067823;28;20045;-68
2021/06/20 05:05:50;;;;;;;8.93;2.53;;;;;;;;;;5074067;28;20009;-68
2021/06/20 05:08:16;;;;;;;8.13;2.10;;;;;;;;;;5072328;28;20025;-68
2021/06/20 05:10:41;;;;;;;10.03;2.37;;;;;;;;;;5065415;28;20028;-68
2021/06/20 05:13:06;;;;;;;7.00;2.20;;;;;;;;;;5066646;28;20051;-68
2021/06/20 05:15:32;;;;;;;7.60;2.63;;;;;;;;;;5066240;28;20050;-68
2021/06/20 05:17:57;;;;;;;10.33;2.10;;;;;;;;;;5073932;28;20104;-68
2021/06/20 05:20:23;;;;;;;6.43;2.30;;;;;;;;;;5065159;28;20182;-68
2021/06/20 05:22:48;;;;;;;6.23;2.20;;;;;;;;;;5074092;28;20469;-68
2021/06/20 05:25:13;;;;;;;7.50;2.60;;;;;;;;;;5065139;28;20380;-68
2021/06/20 05:27:39;;;;;;;8.43;2.63;;;;;;;;;;5073380;28;20021;-68
2021/06/20 05:30:05;;;;;;;6.43;2.20;;;;;;;;;;5071178;28;20032;-68
2021/06/20 05:32:30;;;;;;;5.33;1.70;;;;;;;;;;5073637;28;20025;-68
2021/06/20 05:34:55;;;;;;;5.63;2.43;;;;;;;;;;5068055;28;20029;-68
2021/06/20 05:37:21;;;;;;;7.53;2.17;;;;;;;;;;5073785;28;20465;-68
2021/06/20 05:39:46;;;;;;;5.67;2.13;;;;;;;;;;5071195;28;20353;-68
2021/06/20 05:42:12;;;;;;;8.60;2.30;;;;;;;;;;5072403;28;20032;-68
2021/06/20 05:44:37;;;;;;;7.43;1.85;;;;;;;;;;5066455;28;20057;-68
2021/06/20 05:47:02;;;;;;;12.60;2.00;;;;;;;;;;5070941;28;20025;-68
2021/06/20 05:49:28;;;;;;;8.57;2.33;;;;;;;;;;5064615;28;20035;-68
2021/06/20 05:51:53;;;;;;;5.82;1.70;;;;;;;;;;5071691;28;20373;-68
2021/06/20 05:54:19;;;;;;;5.82;1.98;;;;;;;;;;5073292;28;20389;-68
2021/06/20 05:56:44;;;;;;;5.82;1.60;;;;;;;;;;5072986;28;20108;-68
2021/06/20 05:59:09;;;;;;;3.80;1.58;;;;;;;;;;5073571;28;20556;-68
2021/06/20 06:01:35;;;;;;;8.48;2.10;;;;;;;;;;5073332;28;20501;-68
2021/06/20 06:04:01;;;;;;;9.88;1.75;;;;;;;;;;5072770;28;20564;-68
2021/06/20 06:06:26;;;;;;;6.00;1.95;;;;;;;;;;5073275;28;20025;-68
2021/06/20 06:08:51;;;;;;;6.72;2.03;;;;;;;;;;5072819;28;20027;-68
2021/06/20 06:11:17;;;;;;;7.68;2.17;;;;;;;;;;5073276;28;20492;-68
2021/06/20 06:13:42;;;;;;;6.82;1.95;;;;;;;;;;5072652;28;20477;-68
2021/06/20 06:16:07;;;;;;;5.80;2.10;;;;;;;;;;5072468;28;20480;-68
2021/06/20 06:18:33;;;;;;;5.22;2.28;;;;;;;;;;5072034;28;20039;-68
2021/06/20 06:20:58;;;;;;;8.68;2.60;;;;;;;;;;5066274;28;20036;-67
2021/06/20 06:23:23;;;;;;;6.95;2.55;;;;;;;;;;5072625;28;20096;-67
2021/06/20 06:25:49;;;;;;;8.73;2.47;;;;;;;;;;5064943;28;20032;-68
2021/06/20 06:28:14;;;;;;;10.23;2.70;;;;;;;;;;5072683;28;20028;-67
2021/06/20 06:30:40;;;;;;;9.93;2.95;;;;;;;;;;5072271;28;20021;-68
2021/06/20 06:33:05;;;;;;;7.97;3.08;;;;;;;;;;5072603;28;20051;-67
2021/06/20 06:35:31;;;;;;;9.18;2.88;;;;;;;;;;5066263;28;20344;-67
2021/06/20 06:37:56;;;;;;;6.30;2.75;;;;;;;;;;5064388;28;20048;-68
2021/06/20 06:40:22;;;;;;;5.63;3.28;;;;;;;;;;5064785;28;20025;-68
2021/06/20 06:42:47;;;;;;;6.65;3.08;;;;;;;;;;5069565;28;20032;-67
2021/06/20 06:45:13;;;;;;;9.40;3.90;;;;;;;;;;5068060;28;20028;-67
2021/06/20 06:47:38;;;;;;;8.38;3.97;;;;;;;;;;5066390;28;20385;-67
2021/06/20 06:50:07;;;;;;;10.77;4.15;;;;;;;;;;5072024;28;20115;-67
2021/06/20 06:52:33;;;;;;;6.93;3.58;;;;;;;;;;5065356;28;20025;-67
2021/06/20 06:54:58;;;;;;;7.63;3.83;;;;;;;;;;5072549;28;20035;-67
2021/06/20 06:57:24;;;;;;;8.13;4.05;;;;;;;;;;5066693;28;20059;-67
2021/06/20 06:59:51;;;;;;;7.00;4.00;;;;;;;;;;5072143;28;20024;-67
2021/06/20 07:02:16;;;;;;;7.50;3.85;;;;;;;;;;5061585;28;20544;-68
2021/06/20 07:04:42;;;;;;;11.38;4.40;;;;;;;;;;5062614;28;20115;-67
2021/06/20 07:07:07;;;;;;;10.73;4.22;;;;;;;;;;5069472;28;20036;-67
2021/06/20 07:09:32;;;;;;;12.35;4.13;;;;;;;;;;5068956;28;20547;-67
2021/06/20 07:11:58;;;;;;;7.63;4.05;;;;;;;;;;5064853;28;20481;-68
2021/06/20 07:14:23;;;;;;;8.43;4.30;;;;;;;;;;5055317;28;20528;-67
2021/06/20 07:16:49;;;;;;;10.63;4.55;;;;;;;;;;5060656;28;20097;-67
2021/06/20 07:19:14;;;;;;;9.82;3.80;;;;;;;;;;5065925;28;20105;-68
2021/06/20 07:21:39;;;;;;;7.07;3.95;;;;;;;;;;5064037;28;20419;-67
2021/06/20 07:24:05;;;;;;;10.50;4.65;;;;;;;;;;5061522;28;20040;-68
2021/06/20 07:26:31;;;;;;;10.45;3.55;;;;;;;;;;5064444;28;20086;-67
2021/06/20 07:28:56;;;;;;;9.70;4.45;;;;;;;;;;5065614;28;20060;-67
2021/06/20 07:31:22;;;;;;;10.18;4.65;;;;;;;;;;5068715;28;20024;-67
2021/06/20 07:33:48;;;;;;;11.40;4.65;;;;;;;;;;5068311;28;20040;-67
2021/06/20 07:36:15;;;;;;;13.23;5.10;;;;;;;;;;5069138;28;20484;-67
2021/06/20 07:38:41;;;;;;;10.00;5.10;;;;;;;;;;5070626;28;20029;-67
2021/06/20 07:41:06;;;;;;;11.25;4.80;;;;;;;;;;5072502;28;20029;-67
2021/06/20 07:43:31;;;;;;;14.15;5.15;;;;;;;;;;5068581;28;20115;-67
2021/06/20 07:45:57;;;;;;;10.18;5.38;;;;;;;;;;5071414;28;20707;-67
2021/06/20 07:48:24;;;;;;;12.07;5.43;;;;;;;;;;5072039;28;20500;-67
2021/06/20 07:50:49;;;;;;;9.65;4.88;;;;;;;;;;5072378;28;20124;-67
2021/06/20 07:53:14;;;;;;;12.02;5.30;;;;;;;;;;5071567;28;20107;-67
2021/06/20 07:55:40;;;;;;;12.63;5.68;;;;;;;;;;5072158;28;20077;-67
2021/06/20 07:58:05;;;;;;;12.27;6.07;;;;;;;;;;5072066;28;20690;-66
2021/06/20 08:00:32;;;;;;;12.73;5.20;;;;;;;;;;5071848;28;20031;-67
2021/06/20 08:02:57;;;;;;;10.73;5.50;;;;;;;;;;5071546;28;20048;-67
2021/06/20 08:05:22;;;;;;;10.63;5.13;;;;;;;;;;5071824;28;20024;-67
2021/06/20 08:07:48;;;;;;;16.85;6.18;;;;;;;;;;5069768;28;20071;-67
2021/06/20 08:10:13;;;;;;;10.23;4.68;;;;;;;;;;5071780;28;20439;-66
2021/06/20 08:12:39;;;;;;;13.48;5.63;;;;;;;;;;5071785;28;20033;-67
2021/06/20 08:15:05;;;;;;;10.35;4.95;;;;;;;;;;5071860;28;20051;-67
2021/06/20 08:17:30;;;;;;;16.00;5.60;;;;;;;;;;5071400;28;20401;-66
2021/06/20 08:19:55;;;;;;;10.45;5.03;;;;;;;;;;5071852;28;20060;-67
2021/06/20 08:22:21;;;;;;;10.48;5.63;;;;;;;;;;5071602;28;20036;-67
2021/06/20 08:24:47;;;;;;;13.10;5.15;;;;;;;;;;5071886;28;20044;-68
2021/06/20 08:27:12;;;;;;;11.27;5.15;;;;;;;;;;5071315;28;20107;-68
2021/06/20 08:29:38;;;;;;;15.73;5.60;;;;;;;;;;5071388;28;20137;-68
2021/06/20 08:32:07;;;;;;;13.57;5.53;;;;;;;;;;5071139;28;20579;-68
2021/06/20 08:34:33;;;;;;;10.82;4.95;;;;;;;;;;5071776;28;20525;-67
2021/06/20 08:37:00;;;;;;;10.40;4.60;;;;;;;;;;5071122;28;20059;-68
2021/06/20 08:39:27;;;;;;;8.80;4.63;;;;;;;;;;5070256;28;20072;-70
2021/06/20 08:41:52;;;;;;;9.77;4.85;;;;;;;;;;5070727;28;20033;-69
2021/06/20 08:44:24;;;;;;;13.02;5.15;;;;;;;;;;5071393;28;20500;-67
2021/06/20 08:46:49;;;;;;;;;;;;;;;;;;5071379;28;20025;-67
2021/06/20 08:49:15;;;;;;;10.45;4.85;;;;;;;;;;5070224;28;20313;-69
2021/06/20 08:51:41;;;;;;;8.27;4.03;;;;;;;;;;5070967;28;20214;-71
2021/06/20 08:54:06;;;;;;;8.65;4.22;;;;;;;;;;5070408;28;20105;-71
2021/06/20 08:56:33;;;;;;;7.35;3.70;;;;;;;;;;5071298;28;20043;-72
2021/06/20 08:58:59;;;;;;;6.88;3.60;;;;;;;;;;5070621;28;20068;-73
2021/06/20 09:01:25;;;;;;;8.25;3.67;;;;;;;;;;5064368;28;20039;-71
2021/06/20 09:03:50;;;;;;;7.35;3.58;;;;;;;;;;5058288;28;20045;-72
2021/06/20 09:06:20;;;;;;;9.00;3.70;;;;;;;;;;5063927;28;20028;-70
2021/06/20 09:08:47;;;;;;;7.40;3.10;;;;;;;;;;5068972;28;20028;-69
2021/06/20 09:11:21;;;;;;;5.95;3.20;;;;;;;;;;5067339;28;20024;-68
2021/06/20 09:13:46;;;;;;;8.70;4.00;;;;;;;;;;5061547;28;20109;-69
2021/06/20 09:16:12;;;;;;;7.43;3.90;;;;;;;;;;5060118;28;20024;-70
2021/06/20 09:18:47;;;;;;;6.32;3.28;;;;;;;;;;5063369;28;20370;-71
2021/06/20 09:21:13;;;;;;;5.90;3.15;;;;;;;;;;5068630;28;20441;-72
2021/06/20 09:23:39;;;;;;;5.32;2.63;;;;;;;;;;5065760;28;20108;-71
2021/06/20 09:26:04;;;;;;;6.32;3.10;;;;;;;;;;5065259;28;20059;-71
2021/06/20 09:28:32;;;;;;;6.05;2.90;;;;;;;;;;5068829;28;20079;-70
2021/06/20 09:30:59;;;;;;;7.45;3.10;;;;;;;;;;5059859;28;20032;-71
2021/06/20 09:33:28;;;;;;;6.03;2.67;;;;;;;;;;5061442;28;20017;-70
2021/06/20 09:35:58;;;;;;;5.72;2.70;;;;;;;;;;5065084;28;20032;-69
2021/06/20 09:38:31;;;;;;;5.85;3.00;;;;;;;;;;5062174;28;20020;-70
2021/06/20 09:41:25;;;;;;;5.38;2.35;;;;;;;;;;5069243;28;20086;-70
2021/06/20 09:43:52;;;;;;;7.00;2.38;;;;;;;;;;5049832;28;20111;-68
2021/06/20 09:46:17;;;;;;;5.80;2.70;;;;;;;;;;5065409;28;20025;-69
2021/06/20 09:48:44;;;;;;;5.03;2.33;;;;;;;;;;5067365;28;20082;-70
2021/06/20 09:51:20;;;;;;;4.53;2.33;;;;;;;;;;5060551;28;20051;-70
2021/06/20 09:53:47;;;;;;;4.78;2.53;;;;;;;;;;5063290;28;20021;-70
2021/06/20 09:56:14;;;;;;;4.63;2.50;;;;;;;;;;5060978;28;20032;-70
2021/06/20 09:58:44;;;;;;;4.68;2.50;;;;;;;;;;5070009;28;20161;-70
2021/06/20 10:01:10;;;;;;;5.10;2.67;;;;;;;;;;5062152;28;20477;-70
2021/06/20 10:03:35;;;;;;;4.85;2.15;;;;;;;;;;5069075;28;20071;-69
2021/06/20 10:06:01;;;;;;;6.05;2.30;;;;;;;;;;5062409;28;20051;-69
2021/06/20 10:08:27;;;;;;;4.97;2.15;;;;;;;;;;5056925;28;20190;-68
2021/06/20 10:10:52;;;;;;;5.22;2.40;;;;;;;;;;5059392;28;20037;-68
2021/06/20 10:13:17;;;;;;;5.60;2.40;;;;;;;;;;5065145;28;20031;-69
2021/06/20 10:15:43;;;;;;;4.25;2.30;;;;;;;;;;5059833;28;20484;-69
2021/06/20 10:18:09;;;;;;;4.30;2.00;;;;;;;;;;5060065;28;20477;-68
2021/06/20 10:20:35;;;;;;;3.92;2.13;;;;;;;;;;5064210;28;21395;-68
2021/06/20 10:23:01;;;;;;;3.92;2.20;;;;;;;;;;5064167;28;20023;-69
2021/06/20 10:25:31;;;;;;;6.50;2.60;;;;;;;;;;5058597;28;20103;-68
2021/06/20 10:27:57;;;;;;;4.57;2.40;;;;;;;;;;5055046;28;20137;-69
2021/06/20 10:30:23;;;;;;;5.20;2.33;;;;;;;;;;5061810;28;20016;-69
2021/06/20 10:32:49;;;;;;;8.35;2.17;;;;;;;;;;5057630;28;20082;-68
2021/06/20 10:35:16;;;;;;;4.53;2.25;;;;;;;;;;5065276;28;20036;-68
2021/06/20 10:37:41;;;;;;;4.43;1.85;;;;;;;;;;5059101;28;20399;-68
2021/06/20 10:40:39;;;;;;;4.90;2.40;;;;;;;;;;5063942;28;20115;-67
2021/06/20 10:43:15;;;;;;;4.88;2.45;;;;;;;;;;5065358;28;20036;-67
2021/06/20 10:45:41;;;;;;;4.78;2.17;;;;;;;;;;5057331;28;20028;-68
2021/06/20 10:48:32;;;;;;;4.00;2.17;;;;;;;;;;5062061;28;20020;-68
2021/06/20 10:50:58;;;;;;;4.72;1.90;;;;;;;;;;5063486;28;20076;-68
2021/06/20 10:53:24;;;;;;;5.00;1.85;;;;;;;;;;5061544;28;20067;-68
2021/06/20 10:55:51;;;;;;;4.45;2.10;;;;;;;;;;5065478;28;20421;-68
2021/06/20 10:58:24;;;;;;;8.25;1.80;;;;;;;;;;5061049;28;20021;-68
2021/06/20 11:00:51;;;;;;;4.00;1.95;;;;;;;;;;5057563;28;20522;-68
2021/06/20 11:03:23;;;;;;;3.92;1.63;;;;;;;;;;5057109;28;20045;-69
2021/06/20 11:05:53;;;;;;;3.83;1.80;;;;;;;;;;5064119;28;20508;-68
2021/06/20 11:08:28;;;;;;;3.70;1.63;;;;;;;;;;5060175;28;20087;-68
2021/06/20 11:11:04;;;;;;;3.40;1.60;;;;;;;;;;5053763;28;20089;-68
2021/06/20 11:13:29;;;;;;;3.33;1.67;;;;;;;;;;5063495;28;20433;-67
2021/06/20 11:16:05;;;;;;;3.53;1.60;;;;;;;;;;5052532;28;20028;-68
2021/06/20 11:18:31;;;;;;;3.15;1.55;;;;;;;;;;5058574;28;20275;-68
2021/06/20 11:20:56;;;;;;;4.20;1.67;;;;;;;;;;5055286;28;20029;-68
2021/06/20 11:23:21;;;;;;;4.05;1.58;;;;;;;;;;5065655;28;20635;-68
2021/06/20 11:25:52;;;;;;;3.65;1.10;;;;;;;;;;5064064;28;20474;-68
2021/06/20 11:28:18;;;;;;;3.70;1.50;;;;;;;;;;5066564;28;20400;-68
2021/06/20 11:30:43;;;;;;;4.15;1.40;;;;;;;;;;5059012;28;20029;-68
2021/06/20 11:33:08;;;;;;;1.75;1.00;;;;;;;;;;5059812;28;20499;-68
2021/06/20 11:35:35;;;;;;;2.45;1.20;;;;;;;;;;5061857;28;20028;-67
2021/06/20 11:38:00;;;;;;;2.35;1.30;;;;;;;;;;5066656;28;20036;-68
2021/06/20 11:40:26;;;;;;;3.28;1.20;;;;;;;;;;5064247;28;20350;-67
2021/06/20 11:42:52;;;;;;;2.47;1.30;;;;;;;;;;5062040;28;20477;-68
2021/06/20 11:45:19;;;;;;;3.67;1.40;;;;;;;;;;5055391;28;20037;-67
2021/06/20 11:47:51;;;;;;;3.17;1.65;;;;;;;;;;5054088;28;20024;-68
2021/06/20 11:50:21;;;;;;;3.30;1.70;;;;;;;;;;5056717;28;20036;-67
2021/06/20 11:52:48;;;;;;;3.00;1.60;;;;;;;;;;5061101;28;20021;-67
2021/06/20 11:55:20;;;;;;;4.20;1.40;;;;;;;;;;5064444;28;20021;-68
2021/06/20 11:57:46;;;;;;;3.20;1.85;;;;;;;;;;5059482;28;20059;-68
2021/06/20 12:00:19;;;;;;;3.60;1.70;;;;;;;;;;5064937;28;20029;-68
2021/06/20 12:02:45;;;;;;;3.20;1.60;;;;;;;;;;5057069;28;20036;-67
2021/06/20 12:05:12;;;;;;;4.70;1.73;;;;;;;;;;5056242;28;20477;-68
2021/06/20 12:07:38;;;;;;;4.22;1.90;;;;;;;;;;5065076;28;20027;-67
2021/06/20 12:10:03;;;;;;;3.97;1.80;;;;;;;;;;5064879;28;20017;-68
2021/06/20 12:12:29;;;;;;;6.45;1.70;;;;;;;;;;5063895;28;20020;-67
2021/06/20 12:15:12;;;;;;;3.90;1.80;;;;;;;;;;5064906;28;20033;-67
2021/06/20 12:17:38;;;;;;;4.63;2.55;;;;;;;;;;5058698;28;20081;-68
2021/06/20 12:20:04;;;;;;;6.45;2.70;;;;;;;;;;5057032;28;20028;-67
2021/06/20 12:22:29;;;;;;;4.97;2.10;;;;;;;;;;5056089;28;20028;-67
2021/06/20 12:24:59;;;;;;;4.18;1.88;;;;;;;;;;5055508;28;20474;-67
2021/06/20 12:27:28;;;;;;;3.40;1.67;;;;;;;;;;5064036;28;20369;-67
2021/06/20 12:29:54;;;;;;;3.53;1.60;;;;;;;;;;5060422;28;20085;-67
2021/06/20 12:32:22;;;;;;;3.50;2.00;;;;;;;;;;5061642;28;20111;-67
2021/06/20 12:34:51;;;;;;;4.25;1.80;;;;;;;;;;5062685;28;20033;-67
2021/06/20 12:37:18;;;;;;;3.25;1.83;;;;;;;;;;5066789;28;20043;-67
2021/06/20 12:39:45;;;;;;;4.50;1.58;;;;;;;;;;5062345;28;20052;-67
2021/06/20 12:42:11;;;;;;;3.25;1.55;;;;;;;;;;5061556;28;20037;-67
2021/06/20 12:44:40;;;;;;;3.63;1.80;;;;;;;;;;5063569;28;20094;-67
2021/06/20 12:47:05;;;;;;;3.80;1.90;;;;;;;;;;5066056;28;20021;-67
2021/06/20 12:49:30;;;;;;;5.10;2.85;;;;;;;;;;5062748;28;20031;-68
2021/06/20 12:51:59;;;;;;;6.70;3.33;;;;;;;;;;5066191;28;20531;-67
2021/06/20 12:54:35;;;;;;;6.60;2.92;;;;;;;;;;5059494;28;20032;-67
2021/06/20 12:57:01;;;;;;;4.93;2.90;;;;;;;;;;5062784;28;20037;-67
2021/06/20 12:59:35;;;;;;;5.32;2.35;;;;;;;;;;5059951;28;20031;-67
2021/06/20 13:02:00;;;;;;;5.15;2.28;;;;;;;;;;5064362;28;20036;-68
2021/06/20 13:04:26;;;;;;;4.60;2.47;;;;;;;;;;5061830;28;20051;-67
2021/06/20 13:06:52;;;;;;;5.22;2.70;;;;;;;;;;5062905;28;20030;-68
2021/06/20 13:09:18;;;;;;;5.82;2.78;;;;;;;;;;5059522;28;20108;-67
2021/06/20 13:11:43;;;;;;;7.13;3.00;;;;;;;;;;5068908;28;20111;-67
2021/06/20 13:14:28;;;;;;;5.32;2.78;;;;;;;;;;5063796;28;20028;-68
2021/06/20 13:16:53;;;;;;;5.28;2.85;;;;;;;;;;5057307;28;20106;-68
2021/06/20 13:19:19;;;;;;;5.50;3.05;;;;;;;;;;5053085;28;20129;-67
2021/06/20 13:21:46;;;;;;;5.97;2.75;;;;;;;;;;5056932;28;20032;-67
2021/06/20 13:24:13;;;;;;;5.35;2.90;;;;;;;;;;5062191;28;20029;-67
2021/06/20 13:26:39;;;;;;;4.05;2.53;;;;;;;;;;5069089;28;20553;-68
2021/06/20 13:29:04;;;;;;;3.67;1.95;;;;;;;;;;5059684;28;20021;-68
2021/06/20 13:31:29;;;;;;;4.18;2.08;;;;;;;;;;5065794;28;20024;-67
2021/06/20 13:33:56;;;;;;;5.45;2.30;;;;;;;;;;5059284;28;20473;-67
2021/06/20 13:36:22;;;;;;;3.55;1.95;;;;;;;;;;5060764;28;20028;-67
2021/06/20 13:38:47;;;;;;;4.00;2.22;;;;;;;;;;5057526;28;20032;-68
2021/06/20 13:41:12;;;;;;;5.00;2.10;;;;;;;;;;5068220;28;20495;-68
2021/06/20 13:43:38;;;;;;;3.88;2.08;;;;;;;;;;5069562;28;20031;-68
2021/06/20 13:46:03;;;;;;;6.07;2.10;;;;;;;;;;5056081;28;20038;-68
2021/06/20 13:48:28;;;;;;;5.03;2.13;;;;;;;;;;5065065;28;20027;-68
2021/06/20 13:50:54;;;;;;;4.57;1.95;;;;;;;;;;5066656;28;20056;-68
2021/06/20 13:53:19;;;;;;;5.93;2.65;;;;;;;;;;5067281;28;20024;-68
2021/06/20 13:55:44;;;;;;;8.80;3.35;;;;;;;;;;5061782;28;20086;-68
2021/06/20 13:58:10;;;;;;;5.82;3.17;;;;;;;;;;5057264;28;20020;-67
2021/06/20 14:00:36;;;;;;;6.30;3.20;;;;;;;;;;5061641;28;20048;-68
2021/06/20 14:03:01;;;;;;;7.85;2.80;;;;;;;;;;5066867;28;20048;-68
2021/06/20 14:05:28;;;;;;;5.13;2.83;;;;;;;;;;5064764;28;20032;-68
2021/06/20 14:07:54;;;;;;;5.45;3.00;;;;;;;;;;5066209;28;20496;-67
2021/06/20 14:10:19;;;;;;;4.50;2.50;;;;;;;;;;5062044;28;20473;-67
2021/06/20 14:12:44;;;;;;;7.53;2.53;;;;;;;;;;5066551;28;20028;-67
2021/06/20 14:15:10;;;;;;;4.40;2.33;;;;;;;;;;5058998;28;20028;-68
2021/06/20 14:17:35;;;;;;;6.40;2.45;;;;;;;;;;5058274;28;20452;-67
2021/06/20 14:20:01;;;;;;;6.47;2.42;;;;;;;;;;5063732;28;20025;-68
2021/06/20 14:22:26;;;;;;;4.07;2.30;;;;;;;;;;5060772;28;20427;-67
2021/06/20 14:24:52;;;;;;;4.93;2.60;;;;;;;;;;5054277;28;20512;-67
2021/06/20 14:27:17;;;;;;;3.80;1.90;;;;;;;;;;5063080;28;20028;-67
2021/06/20 14:29:42;;;;;;;4.43;1.80;;;;;;;;;;5062320;28;20453;-68
2021/06/20 14:32:08;;;;;;;3.50;1.60;;;;;;;;;;5063897;28;20439;-67